Antofagasta de la Sierra, Argentina
Current Conditions -  °F | °C
As of 1:00 PM on Sunday 23 Nov 2014 (Local Time) from SASA Reporting Station
Scattered Clouds Scattered Clouds  
Wind Chill: 77°   Ceiling: Unl
Heat Index: 78°   Visibility: 6mi
Dew Point: 54°   Wind: 9mph
Humidity: 44%   Direction: 50°NE
Pressure: 29.97"   Gusts: NA
Location:  26.07°S, 67.42°W
Report Text: SASA 231600Z 05008KT 9999 SCT022 25/12 Q1015
Loading
Personal Weather Stations






























Interactive Weather Map New forecast layout! Learn more

10-Day Weather Forecast

Advertisements
Track Severe Weather on mobile